createdAt,value
2022-09-26T00:01:43.290Z,14.29
2022-09-26T00:04:16.472Z,14.28
2022-09-26T00:06:45.110Z,14.27
2022-09-26T00:09:15.215Z,14.25
2022-09-26T00:11:44.249Z,14.24
2022-09-26T00:14:15.507Z,14.21
2022-09-26T00:16:44.118Z,14.17
2022-09-26T00:19:13.304Z,14.16
2022-09-26T00:21:42.159Z,14.03
2022-09-26T00:24:11.077Z,13.96
2022-09-26T00:26:39.929Z,13.89
2022-09-26T00:29:11.184Z,13.82
2022-09-26T00:31:42.660Z,13.76
2022-09-26T00:34:13.096Z,13.71
2022-09-26T00:36:41.619Z,13.68
2022-09-26T00:39:13.608Z,13.63
2022-09-26T00:41:43.141Z,13.62
2022-09-26T00:44:42.755Z,13.59
2022-09-26T00:47:33.448Z,13.47
2022-09-26T00:50:06.004Z,13.47
2022-09-26T00:52:39.078Z,13.48
2022-09-26T00:55:08.667Z,13.52
2022-09-26T00:57:41.662Z,13.51
2022-09-26T01:00:11.109Z,13.40
2022-09-26T01:02:40.082Z,13.35
2022-09-26T01:05:12.838Z,13.40
2022-09-26T01:07:41.497Z,13.39
2022-09-26T01:10:11.527Z,13.33
2022-09-26T01:12:40.653Z,13.31
2022-09-26T01:15:10.991Z,13.34
2022-09-26T01:17:42.391Z,13.36
2022-09-26T01:20:26.508Z,13.35
2022-09-26T01:23:37.893Z,13.37
2022-09-26T01:26:27.696Z,13.34
2022-09-26T01:29:53.140Z,13.31
2022-09-26T01:32:50.325Z,13.24
2022-09-26T01:35:36.646Z,13.24
2022-09-26T01:38:17.169Z,13.06
2022-09-26T01:41:03.037Z,13.04
2022-09-26T01:43:40.013Z,12.92
2022-09-26T01:46:24.437Z,12.72
2022-09-26T01:49:01.636Z,12.64
2022-09-26T01:51:37.101Z,12.54
2022-09-26T01:54:11.124Z,12.47
2022-09-26T01:56:42.811Z,12.34
2022-09-26T01:59:18.952Z,12.36
2022-09-26T02:01:55.720Z,12.38
2022-09-26T02:04:29.601Z,12.41
2022-09-26T02:07:01.844Z,12.38
2022-09-26T02:09:37.713Z,12.22
2022-09-26T02:12:12.867Z,12.04
2022-09-26T02:14:45.496Z,12.27
2022-09-26T02:17:18.252Z,12.29
2022-09-26T02:19:49.426Z,12.32
2022-09-26T02:22:18.868Z,12.20
2022-09-26T02:24:47.486Z,12.26
2022-09-26T02:27:16.020Z,12.26
2022-09-26T02:29:45.339Z,12.30
2022-09-26T02:32:18.380Z,12.33
2022-09-26T02:34:48.873Z,12.31
2022-09-26T02:37:20.679Z,12.31
2022-09-26T02:39:51.632Z,12.25
2022-09-26T02:42:29.116Z,12.22
2022-09-26T02:45:13.937Z,12.26
2022-09-26T02:48:04.997Z,12.26
2022-09-26T02:50:49.492Z,12.11
2022-09-26T02:53:32.404Z,12.14
2022-09-26T02:56:10.794Z,12.33
2022-09-26T02:58:51.066Z,12.41
2022-09-26T03:01:26.860Z,12.39
2022-09-26T03:04:02.947Z,12.47
2022-09-26T03:06:35.907Z,12.48
2022-09-26T03:09:06.536Z,12.49
2022-09-26T03:11:36.068Z,12.42
2022-09-26T03:14:04.838Z,12.45
2022-09-26T03:16:37.766Z,12.52
2022-09-26T03:19:11.519Z,12.51
2022-09-26T03:21:40.342Z,12.55
2022-09-26T03:24:09.300Z,12.58
2022-09-26T03:26:41.223Z,12.42
2022-09-26T03:29:09.884Z,12.49
2022-09-26T03:31:38.777Z,12.49
2022-09-26T03:34:08.361Z,12.44
2022-09-26T03:36:39.936Z,12.54
2022-09-26T03:39:10.160Z,12.49
2022-09-26T03:41:47.903Z,12.37
2022-09-26T03:44:28.103Z,12.29
2022-09-26T03:47:26.071Z,12.33
2022-09-26T03:49:54.844Z,12.37
2022-09-26T03:52:24.457Z,12.27
2022-09-26T03:54:53.239Z,12.24
2022-09-26T03:57:22.058Z,12.30
2022-09-26T03:59:57.715Z,12.12
2022-09-26T04:02:28.542Z,12.17
2022-09-26T04:05:06.235Z,12.27
2022-09-26T04:07:34.792Z,12.35
2022-09-26T04:10:04.030Z,12.08
2022-09-26T04:12:33.526Z,11.86
2022-09-26T04:15:03.075Z,12.05
2022-09-26T04:17:33.178Z,12.13
2022-09-26T04:20:03.528Z,12.20
2022-09-26T04:22:33.385Z,12.30
2022-09-26T04:25:01.940Z,12.21
2022-09-26T04:27:31.277Z,12.22
2022-09-26T04:29:59.777Z,11.96
2022-09-26T04:32:40.425Z,12.00
2022-09-26T04:35:28.863Z,11.82
2022-09-26T04:37:57.519Z,11.87
2022-09-26T04:40:26.308Z,11.88
2022-09-26T04:43:02.496Z,11.83
2022-09-26T04:45:30.947Z,11.80
2022-09-26T04:47:59.821Z,11.65
2022-09-26T04:50:28.645Z,11.66
2022-09-26T04:53:08.401Z,11.76
2022-09-26T04:55:45.224Z,11.83
2022-09-26T04:58:15.396Z,11.96
2022-09-26T05:00:47.236Z,11.98
2022-09-26T05:03:18.377Z,11.94
2022-09-26T05:05:49.373Z,11.76
2022-09-26T05:08:17.822Z,11.76
2022-09-26T05:10:52.843Z,11.78
2022-09-26T05:13:21.533Z,11.79
2022-09-26T05:15:53.566Z,11.82
2022-09-26T05:18:22.930Z,12.00
2022-09-26T05:20:52.436Z,11.95
2022-09-26T05:23:45.278Z,11.96
2022-09-26T05:26:20.001Z,11.99
2022-09-26T05:28:51.529Z,12.08
2022-09-26T05:31:22.076Z,12.15
2022-09-26T05:33:51.817Z,12.19
2022-09-26T05:36:20.390Z,12.11
2022-09-26T05:38:48.807Z,12.09
2022-09-26T05:41:19.287Z,12.03
2022-09-26T05:43:47.792Z,12.01
2022-09-26T05:46:16.564Z,12.18
2022-09-26T05:48:48.763Z,12.33
2022-09-26T05:51:23.760Z,12.35
2022-09-26T05:53:52.524Z,12.40
2022-09-26T05:56:23.045Z,12.40
2022-09-26T05:59:18.247Z,12.42
2022-09-26T06:02:06.388Z,12.47
2022-09-26T06:05:04.958Z,12.47
2022-09-26T06:08:02.509Z,12.38
2022-09-26T06:10:38.438Z,12.34
2022-09-26T06:13:07.558Z,12.39
2022-09-26T06:15:43.913Z,12.52
2022-09-26T06:18:12.769Z,12.53
2022-09-26T06:20:41.148Z,12.65
2022-09-26T06:23:09.714Z,12.75
2022-09-26T06:25:39.862Z,12.64
2022-09-26T06:28:08.597Z,12.66
2022-09-26T06:30:38.182Z,12.51
2022-09-26T06:33:15.283Z,12.44
2022-09-26T06:36:03.328Z,12.51
2022-09-26T06:38:37.794Z,12.59
2022-09-26T06:41:09.974Z,12.74
2022-09-26T06:43:39.096Z,12.79
2022-09-26T06:46:10.440Z,12.93
2022-09-26T06:48:50.252Z,12.85
2022-09-26T06:51:48.511Z,12.87
2022-09-26T06:54:18.512Z,13.05
2022-09-26T06:56:47.021Z,13.20
2022-09-26T06:59:16.284Z,13.24
2022-09-26T07:01:52.458Z,13.43
2022-09-26T07:04:56.499Z,13.43
2022-09-26T07:07:41.777Z,13.52
2022-09-26T07:10:14.174Z,13.60
2022-09-26T07:13:16.461Z,13.66
2022-09-26T07:15:46.555Z,13.72
2022-09-26T07:18:37.330Z,13.89
2022-09-26T07:21:26.038Z,13.95
2022-09-26T07:24:13.734Z,13.84
2022-09-26T07:26:43.301Z,13.87
2022-09-26T07:29:12.230Z,13.77
2022-09-26T07:31:41.006Z,13.84
2022-09-26T07:34:24.482Z,14.08
2022-09-26T07:36:53.451Z,14.15
2022-09-26T07:39:22.587Z,14.22
2022-09-26T07:41:51.516Z,14.34
2022-09-26T07:45:02.186Z,14.29
2022-09-26T07:47:26.325Z,14.33
2022-09-26T07:50:15.246Z,14.51
2022-09-26T07:53:06.334Z,14.40
2022-09-26T07:55:55.181Z,14.46
2022-09-26T07:58:45.750Z,14.46
2022-09-26T08:01:36.947Z,14.58
2022-09-26T08:04:24.204Z,14.64
2022-09-26T08:06:53.625Z,14.86
2022-09-26T08:09:22.076Z,15.01
2022-09-26T08:12:09.371Z,14.87
2022-09-26T08:14:56.643Z,14.77
2022-09-26T08:17:42.886Z,14.85
2022-09-26T08:20:12.936Z,14.83
2022-09-26T08:22:42.663Z,14.91
2022-09-26T08:25:13.565Z,15.08
2022-09-26T08:27:52.558Z,15.07
2022-09-26T08:30:24.605Z,15.08
2022-09-26T08:32:58.181Z,15.18
2022-09-26T08:35:27.278Z,15.16
2022-09-26T08:38:17.168Z,15.07
2022-09-26T08:40:54.779Z,15.06
2022-09-26T08:43:55.730Z,15.10
2022-09-26T08:47:00.942Z,15.15
2022-09-26T08:50:11.036Z,15.18
2022-09-26T08:52:42.156Z,15.12
2022-09-26T08:55:15.770Z,15.18
2022-09-26T08:57:48.999Z,15.16
2022-09-26T09:00:20.859Z,15.24
2022-09-26T09:03:10.667Z,15.16
2022-09-26T09:05:43.023Z,15.13
2022-09-26T09:08:16.679Z,15.04
2022-09-26T09:11:14.874Z,15.06
2022-09-26T09:13:56.698Z,15.08
2022-09-26T09:16:59.208Z,15.05
2022-09-26T09:20:02.755Z,15.24
2022-09-26T09:23:08.443Z,15.23
2022-09-26T09:25:47.468Z,15.17
2022-09-26T09:28:32.617Z,15.20
2022-09-26T09:31:05.871Z,15.18
2022-09-26T09:33:59.851Z,15.05
2022-09-26T09:36:42.945Z,15.06
2022-09-26T09:39:32.929Z,15.23
2022-09-26T09:42:16.408Z,15.34
2022-09-26T09:44:48.818Z,15.33
2022-09-26T09:47:20.420Z,15.26
2022-09-26T09:49:49.909Z,15.04
2022-09-26T09:52:31.109Z,15.09
2022-09-26T09:55:16.092Z,15.14
2022-09-26T09:58:02.245Z,15.31
2022-09-26T10:00:35.749Z,15.40
2022-09-26T10:03:20.336Z,15.46
2022-09-26T10:05:53.005Z,15.27
2022-09-26T10:08:31.010Z,15.30
2022-09-26T10:11:30.128Z,15.40
2022-09-26T10:14:04.515Z,15.37
2022-09-26T10:17:30.447Z,15.42
2022-09-26T10:20:37.367Z,15.35
2022-09-26T10:23:18.869Z,15.52
2022-09-26T10:25:49.999Z,15.55
2022-09-26T10:28:29.333Z,15.54
2022-09-26T10:31:04.378Z,15.61
2022-09-26T10:33:47.040Z,15.66
2022-09-26T10:36:19.434Z,15.70
2022-09-26T10:39:14.383Z,15.77
2022-09-26T10:41:45.533Z,15.90
2022-09-26T10:44:26.271Z,15.88
2022-09-26T10:47:12.989Z,15.86
2022-09-26T10:50:06.526Z,16.21
2022-09-26T10:53:14.402Z,16.26
2022-09-26T10:55:47.859Z,16.21
2022-09-26T10:58:22.191Z,16.29
2022-09-26T11:00:53.485Z,16.64
2022-09-26T11:03:32.872Z,16.86
2022-09-26T11:06:35.476Z,16.94
2022-09-26T11:09:20.613Z,16.97
2022-09-26T11:12:24.568Z,16.78
2022-09-26T11:14:58.182Z,16.48
2022-09-26T11:17:46.739Z,16.29
2022-09-26T11:20:27.335Z,16.30
2022-09-26T11:23:07.141Z,16.34
2022-09-26T11:25:57.968Z,16.51
2022-09-26T11:28:33.622Z,16.51
2022-09-26T11:31:24.276Z,16.36
2022-09-26T11:34:06.537Z,16.29
2022-09-26T11:37:21.442Z,16.25
2022-09-26T11:40:09.288Z,16.22
2022-09-26T11:42:54.169Z,16.12
2022-09-26T11:45:38.619Z,16.03
2022-09-26T11:48:52.533Z,16.04
2022-09-26T11:52:04.282Z,16.06
2022-09-26T11:54:46.657Z,15.89
2022-09-26T11:57:34.375Z,15.67
2022-09-26T12:00:15.586Z,15.63
2022-09-26T12:03:13.298Z,15.61
2022-09-26T12:05:52.859Z,15.51
2022-09-26T12:08:31.565Z,15.41
2022-09-26T12:11:14.752Z,15.37
2022-09-26T12:13:52.625Z,15.42
2022-09-26T12:16:26.340Z,15.45
2022-09-26T12:19:04.521Z,15.43
2022-09-26T12:22:05.507Z,15.34
2022-09-26T12:24:40.774Z,15.27
2022-09-26T12:27:16.654Z,15.32
2022-09-26T12:29:54.513Z,15.27
2022-09-26T12:32:42.228Z,15.21
2022-09-26T12:35:29.286Z,15.07
2022-09-26T12:38:32.121Z,14.95
2022-09-26T12:41:24.439Z,15.03
2022-09-26T12:44:24.430Z,15.03
2022-09-26T12:47:18.626Z,14.97
2022-09-26T12:50:30.368Z,14.77
2022-09-26T12:53:18.357Z,14.72
2022-09-26T12:55:58.289Z,14.75
2022-09-26T12:58:39.814Z,14.77
2022-09-26T13:01:28.146Z,14.83
2022-09-26T13:04:15.247Z,14.83
2022-09-26T13:07:18.895Z,14.82
2022-09-26T13:10:11.225Z,14.74
2022-09-26T13:13:11.542Z,14.76
2022-09-26T13:15:52.196Z,14.60
2022-09-26T13:18:27.023Z,14.61
2022-09-26T13:21:02.821Z,14.86
2022-09-26T13:23:37.613Z,14.76
2022-09-26T13:26:12.217Z,14.74
2022-09-26T13:29:06.424Z,14.75
2022-09-26T13:31:39.550Z,14.77
2022-09-26T13:34:16.256Z,14.78
2022-09-26T13:36:45.737Z,14.84
2022-09-26T13:39:18.287Z,14.80
2022-09-26T13:41:53.265Z,14.84
2022-09-26T13:44:33.021Z,14.83
2022-09-26T13:47:12.613Z,14.89
2022-09-26T13:49:57.435Z,14.90
2022-09-26T13:52:40.331Z,15.15
2022-09-26T13:55:18.470Z,15.35
2022-09-26T13:57:51.013Z,15.78
2022-09-26T14:00:40.047Z,16.17
2022-09-26T14:03:49.734Z,16.30
2022-09-26T14:06:33.170Z,16.49
2022-09-26T14:09:24.178Z,16.71
2022-09-26T14:12:19.055Z,16.61
2022-09-26T14:15:20.133Z,16.62
2022-09-26T14:18:07.156Z,16.51
2022-09-26T14:20:49.946Z,16.51
2022-09-26T14:23:49.475Z,16.38
2022-09-26T14:26:21.521Z,16.35
2022-09-26T14:28:53.324Z,16.30
2022-09-26T14:31:42.063Z,16.30
2022-09-26T14:34:22.032Z,16.24
2022-09-26T14:36:52.736Z,16.56
2022-09-26T14:39:32.978Z,16.58
2022-09-26T14:42:10.591Z,16.72
2022-09-26T14:44:45.868Z,16.62
2022-09-26T14:47:15.855Z,16.79
2022-09-26T14:49:54.026Z,16.91
2022-09-26T14:52:24.572Z,16.98
2022-09-26T14:54:58.219Z,16.96
2022-09-26T14:57:30.935Z,16.82
2022-09-26T15:00:01.049Z,16.84
2022-09-26T15:02:41.485Z,16.89
2022-09-26T15:05:25.418Z,17.01
2022-09-26T15:07:56.983Z,17.35
2022-09-26T15:10:37.584Z,17.47
2022-09-26T15:13:19.339Z,17.49
2022-09-26T15:15:55.182Z,17.46
2022-09-26T15:18:38.645Z,17.13
2022-09-26T15:21:17.602Z,17.16
2022-09-26T15:23:49.652Z,17.06
2022-09-26T15:26:21.679Z,16.91
2022-09-26T15:28:53.300Z,16.59
2022-09-26T15:31:26.104Z,16.67
2022-09-26T15:34:03.641Z,16.52
2022-09-26T15:36:34.892Z,16.49
2022-09-26T15:39:24.128Z,16.37
2022-09-26T15:42:11.530Z,16.15
2022-09-26T15:44:48.052Z,16.13
2022-09-26T15:47:39.062Z,15.87
2022-09-26T15:50:12.640Z,15.87
2022-09-26T15:52:44.380Z,15.86
2022-09-26T15:55:20.667Z,15.80
2022-09-26T15:57:53.196Z,15.66
2022-09-26T16:00:21.842Z,15.57
2022-09-26T16:02:51.700Z,15.66
2022-09-26T16:05:23.113Z,15.58
2022-09-26T16:07:52.505Z,15.56
2022-09-26T16:10:24.733Z,15.55
2022-09-26T16:12:53.377Z,15.47
2022-09-26T16:15:27.393Z,15.51
2022-09-26T16:17:57.954Z,15.49
2022-09-26T16:20:30.224Z,15.36
2022-09-26T16:23:05.097Z,15.35
2022-09-26T16:25:52.765Z,15.32
2022-09-26T16:28:41.785Z,15.26
2022-09-26T16:31:23.723Z,15.22
2022-09-26T16:33:54.430Z,15.16
2022-09-26T16:36:25.457Z,15.16
2022-09-26T16:38:57.161Z,15.09
2022-09-26T16:44:31.868Z,14.97
2022-09-26T16:47:05.980Z,14.92
2022-09-26T16:49:45.157Z,14.86
2022-09-26T16:52:36.724Z,14.80
2022-09-26T16:55:08.615Z,14.75
2022-09-26T16:57:40.382Z,14.66
2022-09-26T17:00:36.525Z,14.64
2022-09-26T17:03:20.733Z,14.58
2022-09-26T17:05:51.123Z,14.54
2022-09-26T17:08:21.405Z,14.52
2022-09-26T17:10:49.912Z,14.50
2022-09-26T17:13:22.229Z,14.50
2022-09-26T17:15:54.001Z,14.43
2022-09-26T17:18:28.565Z,14.35
2022-09-26T17:20:58.523Z,14.27
2022-09-26T17:23:40.029Z,14.20
2022-09-26T17:26:16.063Z,14.16
2022-09-26T17:28:45.535Z,14.15
2022-09-26T17:31:18.872Z,14.08
2022-09-26T17:33:49.076Z,14.05
2022-09-26T17:36:22.584Z,14.02
2022-09-26T17:38:55.518Z,13.97
2022-09-26T17:41:28.968Z,13.76
2022-09-26T17:43:59.608Z,13.56
2022-09-26T17:46:29.025Z,13.51
2022-09-26T17:48:58.652Z,13.54
2022-09-26T17:51:30.393Z,13.52
2022-09-26T17:53:59.280Z,13.39
2022-09-26T17:56:28.065Z,13.31
2022-09-26T17:58:59.739Z,13.32
2022-09-26T18:01:33.661Z,13.28
2022-09-26T18:04:12.036Z,13.33
2022-09-26T18:06:42.374Z,13.29
2022-09-26T18:09:15.974Z,13.26
2022-09-26T18:11:53.608Z,13.29
2022-09-26T18:14:23.038Z,13.25
2022-09-26T18:16:51.614Z,13.19
2022-09-26T18:19:21.094Z,13.13
2022-09-26T18:21:53.793Z,13.11
2022-09-26T18:24:22.503Z,13.06
2022-09-26T18:26:56.495Z,13.08
2022-09-26T18:29:31.412Z,12.99
2022-09-26T18:32:00.821Z,12.97
2022-09-26T18:34:30.135Z,12.92
2022-09-26T18:37:00.953Z,12.91
2022-09-26T18:39:30.604Z,12.85
2022-09-26T18:42:04.407Z,12.79
2022-09-26T18:44:34.559Z,12.82
2022-09-26T18:47:07.203Z,12.77
2022-09-26T18:49:37.574Z,12.75
2022-09-26T18:52:11.432Z,12.77
2022-09-26T18:54:44.337Z,12.72
2022-09-26T18:57:32.165Z,12.67
2022-09-26T19:00:02.052Z,12.61
2022-09-26T19:02:37.602Z,12.63
2022-09-26T19:05:14.169Z,12.55
2022-09-26T19:07:44.326Z,12.49
2022-09-26T19:10:15.905Z,12.35
2022-09-26T19:12:44.672Z,12.35
2022-09-26T19:15:17.157Z,12.41
2022-09-26T19:17:46.020Z,12.45
2022-09-26T19:20:14.793Z,12.41
2022-09-26T19:22:43.370Z,12.37
2022-09-26T19:25:11.691Z,12.36
2022-09-26T19:27:45.576Z,12.36
2022-09-26T19:30:17.482Z,12.33
2022-09-26T19:32:49.080Z,12.33
2022-09-26T19:35:23.831Z,12.42
2022-09-26T19:37:53.320Z,12.37
2022-09-26T19:40:23.646Z,12.32
2022-09-26T19:42:53.180Z,12.32
2022-09-26T19:45:22.035Z,12.42
2022-09-26T19:47:53.550Z,12.45
2022-09-26T19:50:25.178Z,12.47
2022-09-26T19:52:55.978Z,12.49
2022-09-26T19:55:27.819Z,12.52
2022-09-26T19:58:01.155Z,12.51
2022-09-26T20:00:30.427Z,12.51
2022-09-26T20:02:58.942Z,12.51
2022-09-26T20:05:27.245Z,12.45
2022-09-26T20:07:55.782Z,12.49
2022-09-26T20:10:24.843Z,12.44
2022-09-26T20:12:53.989Z,12.41
2022-09-26T20:15:23.471Z,12.38
2022-09-26T20:17:54.416Z,12.43
2022-09-26T20:20:24.396Z,12.42
2022-09-26T20:22:55.114Z,12.42
2022-09-26T20:25:27.293Z,12.41
2022-09-26T20:27:57.641Z,12.32
2022-09-26T20:30:45.504Z,12.25
2022-09-26T20:33:15.280Z,12.36
2022-09-26T20:35:47.249Z,12.25
2022-09-26T20:38:25.945Z,12.06
2022-09-26T20:40:59.385Z,12.14
2022-09-26T20:43:33.382Z,12.26
2022-09-26T20:46:10.924Z,12.26
2022-09-26T20:48:42.457Z,12.28
2022-09-26T20:51:18.579Z,12.25
2022-09-26T20:53:47.213Z,12.19
2022-09-26T20:56:16.752Z,12.13
2022-09-26T20:58:45.255Z,12.04
2022-09-26T21:01:14.874Z,12.04
2022-09-26T21:03:46.566Z,12.10
2022-09-26T21:06:18.957Z,12.12
2022-09-26T21:08:47.965Z,12.10
2022-09-26T21:11:18.865Z,12.09
2022-09-26T21:13:47.957Z,12.11
2022-09-26T21:16:19.573Z,12.08
2022-09-26T21:18:50.587Z,12.08
2022-09-26T21:21:23.017Z,12.02
2022-09-26T21:24:15.858Z,11.98
2022-09-26T21:26:44.510Z,11.96
2022-09-26T21:29:16.511Z,11.83
2022-09-26T21:31:48.424Z,11.78
2022-09-26T21:34:21.481Z,11.88
2022-09-26T21:36:52.092Z,11.88
2022-09-26T21:39:21.103Z,11.88
2022-09-26T21:41:53.682Z,11.82
2022-09-26T21:44:24.083Z,11.84
2022-09-26T21:46:52.758Z,11.69
2022-09-26T21:49:21.038Z,11.58
2022-09-26T21:51:54.766Z,11.62
2022-09-26T21:54:27.241Z,11.60
2022-09-26T21:57:01.564Z,11.60
2022-09-26T21:59:30.763Z,11.64
2022-09-26T22:01:59.319Z,11.57
2022-09-26T22:04:28.275Z,11.63
2022-09-26T22:06:56.654Z,11.57
2022-09-26T22:09:25.066Z,11.56
2022-09-26T22:11:53.352Z,11.46
2022-09-26T22:14:21.608Z,11.28
2022-09-26T22:16:49.944Z,11.35
2022-09-26T22:19:18.275Z,11.34
2022-09-26T22:21:46.591Z,11.42
2022-09-26T22:24:14.850Z,11.48
2022-09-26T22:26:44.173Z,11.38
2022-09-26T22:29:12.786Z,11.44
2022-09-26T22:31:41.881Z,11.46
2022-09-26T22:34:10.537Z,11.47
2022-09-26T22:36:38.836Z,11.45
2022-09-26T22:39:07.218Z,11.44
2022-09-26T22:41:36.128Z,11.41
2022-09-26T22:44:04.387Z,11.44
2022-09-26T22:46:34.395Z,11.47
2022-09-26T22:49:02.923Z,11.56
2022-09-26T22:51:31.279Z,11.62
2022-09-26T22:53:59.653Z,11.53
2022-09-26T22:56:27.921Z,11.45
2022-09-26T22:58:56.231Z,11.49
2022-09-26T23:01:27.281Z,11.48
2022-09-26T23:03:57.861Z,11.51
2022-09-26T23:06:27.248Z,11.55
2022-09-26T23:08:56.070Z,11.54
2022-09-26T23:11:24.494Z,11.49
2022-09-26T23:13:53.618Z,11.52
2022-09-26T23:16:23.893Z,11.59
2022-09-26T23:18:53.146Z,11.65
2022-09-26T23:21:23.074Z,11.72
2022-09-26T23:23:54.182Z,11.74
2022-09-26T23:26:25.137Z,11.74
2022-09-26T23:28:55.119Z,11.55
2022-09-26T23:31:24.711Z,11.57
2022-09-26T23:33:53.661Z,11.63
2022-09-26T23:36:22.609Z,11.62
2022-09-26T23:38:50.901Z,11.63
2022-09-26T23:41:19.688Z,11.65
2022-09-26T23:43:48.102Z,11.73
2022-09-26T23:46:16.893Z,11.77
2022-09-26T23:48:46.464Z,11.74
2022-09-26T23:51:14.881Z,11.75
2022-09-26T23:53:43.340Z,11.75
2022-09-26T23:56:13.503Z,11.71
2022-09-26T23:58:42.398Z,11.63
